Rhoades, North Dakota
Current Conditions -  °F | °C
As of 4:35 PM on Saturday 20 Dec 2014 (Local Time) from KS25 Reporting Station
Broken Clouds Broken Clouds  
Wind Chill: 36°   Ceiling: 6500
Heat Index: 36°   Visibility: 10mi
Dew Point: 30°   Wind: 0mph
Humidity: 81%   Direction: NA
Pressure: 29.76"   Gusts: NA
Location:  47.4477°N, 103.347°W
Report Text: KS25 202335Z AUTO 00000KT 10SM BKN065 02/M01 A2976 RMK AO2
Loading
Personal Weather Stations






























Interactive Weather Map New forecast layout! Learn more

10-Day Weather Forecast

Advertisements
Track Severe Weather on mobile